createdAt,value
2018-05-17T00:02:19.720Z,6.47
2018-05-17T00:04:48.560Z,7.53
2018-05-17T00:07:17.408Z,6.40
2018-05-17T00:09:46.232Z,5.87
2018-05-17T00:12:15.047Z,6.17
2018-05-17T00:14:43.892Z,4.60
2018-05-17T00:17:12.712Z,8.07
2018-05-17T00:19:41.596Z,5.10
2018-05-17T00:22:10.419Z,7.60
2018-05-17T00:24:39.243Z,8.67
2018-05-17T00:27:08.116Z,4.30
2018-05-17T00:29:36.964Z,4.07
2018-05-17T00:32:05.783Z,4.23
2018-05-17T00:34:34.607Z,5.10
2018-05-17T00:37:03.434Z,7.33
2018-05-17T00:39:32.255Z,4.40
2018-05-17T00:42:01.092Z,6.90
2018-05-17T00:44:29.935Z,5.90
2018-05-17T00:46:58.777Z,5.07
2018-05-17T00:49:27.620Z,5.67
2018-05-17T00:51:56.447Z,8.20
2018-05-17T00:54:25.275Z,10.10
2018-05-17T00:56:54.138Z,8.90
2018-05-17T00:59:22.975Z,8.70
2018-05-17T01:01:51.820Z,5.87
2018-05-17T01:04:20.651Z,8.17
2018-05-17T01:06:49.538Z,5.53
2018-05-17T01:09:18.359Z,5.13
2018-05-17T01:11:47.184Z,6.43
2018-05-17T01:14:16.032Z,4.30
2018-05-17T01:16:44.851Z,5.57
2018-05-17T01:19:13.677Z,6.70
2018-05-17T01:21:42.507Z,5.93
2018-05-17T01:24:11.358Z,10.80
2018-05-17T01:26:40.170Z,5.53
2018-05-17T01:29:09.118Z,7.60
2018-05-17T01:31:37.955Z,6.87
2018-05-17T01:34:06.773Z,3.30
2018-05-17T01:36:41.554Z,9.87
2018-05-17T01:39:10.427Z,3.87
2018-05-17T01:41:39.335Z,6.27
2018-05-17T01:44:08.164Z,6.00
2018-05-17T01:46:36.985Z,4.40
2018-05-17T01:49:05.836Z,5.43
2018-05-17T01:51:34.655Z,6.60
2018-05-17T01:54:03.542Z,7.37
2018-05-17T01:56:32.367Z,7.13
2018-05-17T01:59:01.197Z,11.33
2018-05-17T02:01:30.035Z,6.00
2018-05-17T02:03:58.863Z,5.73
2018-05-17T02:06:27.695Z,12.80
2018-05-17T02:08:56.535Z,6.40
2018-05-17T02:11:25.385Z,5.97
2018-05-17T02:13:54.214Z,4.50
2018-05-17T02:16:23.043Z,5.17
2018-05-17T02:18:51.867Z,6.83
2018-05-17T02:21:20.687Z,6.83
2018-05-17T02:23:49.518Z,14.63
2018-05-17T02:26:18.359Z,6.57
2018-05-17T02:28:47.216Z,13.43
2018-05-17T02:31:16.043Z,5.60
2018-05-17T02:33:44.872Z,7.40
2018-05-17T02:36:13.736Z,5.30
2018-05-17T02:38:42.593Z,3.77
2018-05-17T02:41:11.415Z,5.53
2018-05-17T02:43:40.243Z,5.50
2018-05-17T02:46:09.204Z,6.23
2018-05-17T02:48:38.036Z,9.90
2018-05-17T02:51:06.876Z,3.10
2018-05-17T02:53:35.717Z,6.40
2018-05-17T02:56:04.565Z,4.13
2018-05-17T02:58:33.383Z,5.00
2018-05-17T03:01:02.234Z,8.80
2018-05-17T03:03:31.060Z,6.23
2018-05-17T03:05:59.886Z,5.10
2018-05-17T03:08:28.738Z,9.70
2018-05-17T03:10:57.559Z,7.30
2018-05-17T03:13:26.387Z,3.10
2018-05-17T03:15:55.231Z,6.83
2018-05-17T03:18:24.063Z,6.33
2018-05-17T03:20:52.909Z,5.00
2018-05-17T03:23:21.759Z,3.90
2018-05-17T03:25:50.603Z,10.17
2018-05-17T03:28:19.431Z,15.60
2018-05-17T03:30:48.287Z,10.60
2018-05-17T03:33:17.198Z,5.13
2018-05-17T03:35:46.028Z,4.73
2018-05-17T03:38:14.847Z,7.33
2018-05-17T03:40:43.675Z,7.20
2018-05-17T03:43:12.515Z,7.97
2018-05-17T03:45:41.363Z,3.97
2018-05-17T03:48:10.211Z,4.87
2018-05-17T03:50:39.057Z,7.47
2018-05-17T03:53:07.890Z,5.77
2018-05-17T03:55:36.710Z,6.90
2018-05-17T03:58:05.556Z,6.73
2018-05-17T04:00:40.356Z,6.77
2018-05-17T04:03:15.915Z,6.27
2018-05-17T04:05:44.743Z,11.00
2018-05-17T04:08:13.577Z,5.93
2018-05-17T04:10:42.418Z,6.60
2018-05-17T04:13:11.247Z,5.90
2018-05-17T04:15:40.110Z,5.63
2018-05-17T04:18:09.000Z,9.40
2018-05-17T04:20:37.817Z,7.13
2018-05-17T04:23:06.647Z,7.27
2018-05-17T04:25:35.468Z,7.87
2018-05-17T04:28:04.315Z,8.53
2018-05-17T04:30:33.156Z,5.97
2018-05-17T04:33:01.997Z,5.03
2018-05-17T04:35:30.820Z,9.30
2018-05-17T04:37:59.670Z,8.97
2018-05-17T04:40:28.601Z,7.37
2018-05-17T04:42:57.350Z,8.67
2018-05-17T04:45:26.201Z,16.63
2018-05-17T04:47:55.040Z,11.03
2018-05-17T04:50:23.865Z,5.20
2018-05-17T04:52:52.680Z,7.30
2018-05-17T04:55:21.523Z,11.87
2018-05-17T04:57:50.350Z,31.77
2018-05-17T05:00:19.198Z,7.30
2018-05-17T05:02:48.090Z,9.80
2018-05-17T05:05:16.916Z,7.17
2018-05-17T05:07:45.755Z,13.13
2018-05-17T05:10:14.643Z,15.30
2018-05-17T05:12:43.501Z,11.60
2018-05-17T05:15:12.328Z,10.23
2018-05-17T05:17:41.175Z,7.50
2018-05-17T05:20:09.998Z,12.03
2018-05-17T05:22:38.887Z,6.73
2018-05-17T05:25:07.715Z,12.30
2018-05-17T05:27:36.538Z,7.73
2018-05-17T05:30:05.392Z,11.33
2018-05-17T05:32:34.215Z,7.40
2018-05-17T05:35:03.047Z,13.23
2018-05-17T05:37:31.952Z,17.03
2018-05-17T05:40:00.742Z,9.07
2018-05-17T05:42:29.570Z,11.77
2018-05-17T05:44:58.411Z,7.90
2018-05-17T05:47:27.239Z,8.00
2018-05-17T05:49:56.059Z,9.03
2018-05-17T05:52:24.991Z,15.30
2018-05-17T05:54:53.841Z,11.63
2018-05-17T05:57:22.667Z,12.10
2018-05-17T05:59:51.494Z,11.20
2018-05-17T06:02:20.382Z,7.40
2018-05-17T06:04:49.200Z,8.40
2018-05-17T06:07:18.051Z,15.13
2018-05-17T06:09:46.879Z,8.77
2018-05-17T06:12:15.706Z,13.10
2018-05-17T06:14:44.524Z,10.63
2018-05-17T06:17:13.351Z,10.00
2018-05-17T06:19:42.201Z,11.43
2018-05-17T06:22:11.026Z,12.47
2018-05-17T06:24:39.856Z,15.97
2018-05-17T06:27:08.703Z,15.27
2018-05-17T06:29:37.544Z,16.37
2018-05-17T06:32:06.367Z,21.33
2018-05-17T06:34:35.216Z,25.30
2018-05-17T06:37:04.043Z,27.23
2018-05-17T06:39:32.875Z,24.17
2018-05-17T06:42:01.723Z,24.90
2018-05-17T06:44:30.555Z,25.30
2018-05-17T06:46:59.391Z,23.53
2018-05-17T06:49:28.248Z,19.27
2018-05-17T06:51:57.094Z,19.97
2018-05-17T06:54:25.921Z,18.07
2018-05-17T06:56:54.808Z,21.80
2018-05-17T06:59:23.651Z,18.70
2018-05-17T07:01:52.481Z,14.83
2018-05-17T07:04:21.299Z,9.73
2018-05-17T07:06:50.138Z,13.37
2018-05-17T07:09:18.991Z,12.40
2018-05-17T07:11:47.879Z,12.40
2018-05-17T07:14:16.710Z,11.43
2018-05-17T07:16:45.535Z,11.67
2018-05-17T07:19:14.358Z,12.90
2018-05-17T07:21:43.203Z,14.63
2018-05-17T07:24:12.185Z,10.53
2018-05-17T07:26:40.963Z,12.30
2018-05-17T07:29:09.820Z,10.00
2018-05-17T07:31:38.640Z,9.33
2018-05-17T07:34:07.474Z,13.47
2018-05-17T07:36:36.325Z,11.27
2018-05-17T07:39:06.103Z,12.90
2018-05-17T07:41:34.947Z,10.97
2018-05-17T07:44:03.779Z,15.27
2018-05-17T07:46:32.602Z,15.20
2018-05-17T07:49:01.452Z,11.93
2018-05-17T07:51:30.274Z,20.30
2018-05-17T07:53:59.116Z,14.17
2018-05-17T07:56:27.959Z,11.70
2018-05-17T07:58:56.788Z,17.03
2018-05-17T08:01:25.616Z,22.67
2018-05-17T08:03:54.471Z,14.30
2018-05-17T08:06:23.305Z,17.00
2018-05-17T08:08:52.131Z,19.83
2018-05-17T08:11:20.988Z,11.73
2018-05-17T08:13:49.811Z,19.70
2018-05-17T08:16:18.660Z,15.80
2018-05-17T08:18:47.510Z,14.53
2018-05-17T08:21:16.342Z,18.60
2018-05-17T08:23:45.251Z,22.33
2018-05-17T08:26:14.066Z,17.13
2018-05-17T08:28:42.898Z,27.00
2018-05-17T08:31:11.747Z,18.30
2018-05-17T08:33:40.583Z,17.37
2018-05-17T08:36:09.449Z,23.43
2018-05-17T08:38:38.275Z,21.67
2018-05-17T08:41:07.124Z,19.40
2018-05-17T08:43:35.947Z,24.80
2018-05-17T08:46:04.796Z,24.63
2018-05-17T08:48:33.628Z,23.07
2018-05-17T08:51:02.454Z,25.83
2018-05-17T08:53:31.283Z,25.07
2018-05-17T08:56:00.101Z,24.23
2018-05-17T08:58:28.927Z,23.97
2018-05-17T09:00:57.783Z,18.80
2018-05-17T09:03:26.610Z,20.07
2018-05-17T09:05:55.443Z,25.87
2018-05-17T09:08:24.299Z,20.53
2018-05-17T09:10:53.131Z,21.47
2018-05-17T09:13:21.979Z,19.70
2018-05-17T09:15:50.818Z,20.87
2018-05-17T09:18:19.643Z,18.10
2018-05-17T09:20:48.475Z,33.73
2018-05-17T09:23:17.338Z,15.53
2018-05-17T09:25:46.177Z,19.60
2018-05-17T09:28:15.015Z,21.10
2018-05-17T09:30:43.877Z,15.77
2018-05-17T09:33:12.707Z,19.93
2018-05-17T09:35:41.597Z,12.20
2018-05-17T09:38:10.406Z,19.07
2018-05-17T09:40:39.235Z,12.83
2018-05-17T09:43:08.059Z,11.57
2018-05-17T09:45:36.909Z,11.50
2018-05-17T09:48:05.759Z,13.13
2018-05-17T09:50:34.591Z,16.40
2018-05-17T09:53:03.428Z,17.73
2018-05-17T09:55:32.279Z,14.67
2018-05-17T09:58:01.107Z,18.97
2018-05-17T10:00:30.866Z,16.20
2018-05-17T10:02:59.720Z,16.40
2018-05-17T10:05:28.543Z,13.87
2018-05-17T10:07:57.391Z,15.80
2018-05-17T10:10:26.223Z,16.70
2018-05-17T10:12:55.057Z,15.17
2018-05-17T10:15:24.005Z,18.13
2018-05-17T10:17:52.850Z,14.70
2018-05-17T10:20:21.765Z,15.03
2018-05-17T10:22:50.607Z,18.27
2018-05-17T10:25:19.853Z,15.90
2018-05-17T10:27:48.695Z,15.97
2018-05-17T10:30:17.544Z,14.77
2018-05-17T10:32:46.377Z,14.57
2018-05-17T10:35:15.211Z,16.13
2018-05-17T10:37:44.056Z,13.83
2018-05-17T10:40:14.699Z,13.27
2018-05-17T10:42:43.552Z,12.10
2018-05-17T10:45:12.416Z,16.83
2018-05-17T10:47:41.255Z,18.77
2018-05-17T10:50:10.109Z,17.17
2018-05-17T10:52:38.943Z,15.03
2018-05-17T10:55:07.796Z,14.10
2018-05-17T10:57:36.642Z,15.27
2018-05-17T11:00:05.475Z,18.57
2018-05-17T11:02:34.393Z,11.00
2018-05-17T11:05:03.174Z,13.20
2018-05-17T11:07:32.008Z,12.93
2018-05-17T11:10:00.842Z,12.70
2018-05-17T11:12:29.689Z,11.30
2018-05-17T11:14:58.502Z,12.23
2018-05-17T11:17:27.339Z,9.30
2018-05-17T11:19:56.191Z,11.03
2018-05-17T11:22:25.039Z,8.07
2018-05-17T11:24:53.872Z,7.40
2018-05-17T11:27:22.715Z,8.70
2018-05-17T11:29:51.618Z,6.00
2018-05-17T11:32:20.474Z,8.00
2018-05-17T11:34:49.299Z,10.87
2018-05-17T11:37:18.123Z,5.27
2018-05-17T11:39:46.944Z,6.27
2018-05-17T11:42:15.805Z,10.80
2018-05-17T11:44:44.699Z,8.50
2018-05-17T11:47:13.521Z,12.50
2018-05-17T11:49:42.342Z,4.40
2018-05-17T11:52:11.180Z,6.43
2018-05-17T11:54:40.004Z,5.50
2018-05-17T11:57:08.827Z,6.37
2018-05-17T11:59:37.671Z,6.00
2018-05-17T12:02:06.502Z,16.03
2018-05-17T12:04:35.343Z,7.80
2018-05-17T12:07:04.190Z,6.90
2018-05-17T12:09:33.017Z,7.00
2018-05-17T12:12:01.840Z,7.40
2018-05-17T12:14:30.687Z,8.70
2018-05-17T12:16:59.530Z,9.40
2018-05-17T12:19:28.354Z,10.43
2018-05-17T12:21:57.213Z,18.20
2018-05-17T12:24:26.043Z,8.00
2018-05-17T12:26:54.871Z,9.70
2018-05-17T12:29:23.714Z,9.37
2018-05-17T12:31:52.669Z,8.63
2018-05-17T12:34:21.443Z,9.13
2018-05-17T12:36:50.282Z,8.30
2018-05-17T12:39:19.114Z,12.50
2018-05-17T12:41:47.971Z,17.00
2018-05-17T12:44:16.819Z,32.23
2018-05-17T12:46:45.659Z,10.40
2018-05-17T12:49:14.594Z,18.77
2018-05-17T12:51:43.435Z,14.43
2018-05-17T12:54:12.264Z,15.53
2018-05-17T12:56:41.185Z,8.13
2018-05-17T12:59:09.925Z,7.70
2018-05-17T13:01:38.772Z,8.03
2018-05-17T13:04:07.595Z,21.90
2018-05-17T13:06:36.454Z,6.43
2018-05-17T13:09:05.949Z,15.20
2018-05-17T13:11:34.770Z,18.67
2018-05-17T13:14:03.635Z,16.97
2018-05-17T13:16:32.467Z,24.57
2018-05-17T13:19:01.316Z,14.93
2018-05-17T13:21:30.492Z,20.20
2018-05-17T13:23:59.650Z,13.67
2018-05-17T13:26:28.927Z,23.43
2018-05-17T13:28:57.755Z,13.07
2018-05-17T13:31:26.583Z,9.30
2018-05-17T13:33:55.434Z,14.13
2018-05-17T13:36:24.270Z,14.87
2018-05-17T13:38:53.118Z,10.70
2018-05-17T13:41:21.955Z,14.87
2018-05-17T13:43:50.804Z,14.23
2018-05-17T13:46:19.631Z,10.90
2018-05-17T13:48:48.451Z,11.23
2018-05-17T13:54:05.230Z,12.83
2018-05-17T13:56:34.087Z,14.10
2018-05-17T13:59:02.943Z,13.73
2018-05-17T14:01:31.770Z,9.70
2018-05-17T14:04:00.595Z,7.30
2018-05-17T14:06:29.455Z,7.50
2018-05-17T14:08:58.282Z,9.13
2018-05-17T14:11:27.110Z,10.40
2018-05-17T14:13:55.927Z,7.70
2018-05-17T14:16:24.746Z,8.97
2018-05-17T14:18:53.602Z,7.97
2018-05-17T14:21:22.447Z,5.47
2018-05-17T14:23:51.278Z,5.10
2018-05-17T14:26:20.115Z,4.40
2018-05-17T14:28:48.939Z,6.03
2018-05-17T14:31:17.763Z,5.10
2018-05-17T14:33:46.611Z,8.13
2018-05-17T14:36:15.435Z,4.57
2018-05-17T14:38:44.262Z,5.07
2018-05-17T14:41:13.083Z,8.73
2018-05-17T14:43:41.913Z,5.20
2018-05-17T14:46:10.739Z,5.37
2018-05-17T14:48:39.602Z,17.07
2018-05-17T14:51:08.427Z,4.63
2018-05-17T14:53:37.280Z,5.80
2018-05-17T14:56:06.131Z,7.57
2018-05-17T14:58:34.950Z,11.17
2018-05-17T15:01:03.772Z,6.13
2018-05-17T15:03:32.607Z,4.90
2018-05-17T15:06:01.451Z,9.57
2018-05-17T15:08:30.293Z,8.73
2018-05-17T15:10:59.344Z,7.30
2018-05-17T15:13:27.963Z,8.10
2018-05-17T15:15:56.799Z,3.97
2018-05-17T15:18:25.622Z,5.40
2018-05-17T15:20:54.444Z,6.87
2018-05-17T15:23:23.286Z,6.60
2018-05-17T15:25:52.114Z,6.23
2018-05-17T15:28:20.941Z,5.17
2018-05-17T15:30:49.794Z,4.07
2018-05-17T15:33:18.619Z,5.20
2018-05-17T15:35:47.581Z,6.47
2018-05-17T15:38:16.426Z,4.27
2018-05-17T15:40:45.243Z,4.50
2018-05-17T15:43:14.067Z,3.50
2018-05-17T15:45:42.918Z,7.03
2018-05-17T15:48:11.793Z,5.00
2018-05-17T15:50:40.587Z,6.37
2018-05-17T15:53:09.438Z,5.80
2018-05-17T15:55:38.258Z,7.63
2018-05-17T15:58:07.100Z,6.67
2018-05-17T16:00:35.946Z,6.23
2018-05-17T16:03:04.800Z,4.83
2018-05-17T16:05:33.655Z,6.30
2018-05-17T16:08:02.510Z,8.87
2018-05-17T16:10:31.350Z,7.10
2018-05-17T16:13:00.265Z,7.30
2018-05-17T16:15:29.286Z,16.90
2018-05-17T16:17:57.987Z,5.27
2018-05-17T16:20:26.846Z,11.00
2018-05-17T16:22:55.663Z,7.03
2018-05-17T16:25:24.498Z,8.23
2018-05-17T16:27:53.326Z,4.40
2018-05-17T16:30:22.141Z,8.57
2018-05-17T16:32:50.986Z,6.87
2018-05-17T16:35:19.874Z,6.67
2018-05-17T16:37:48.764Z,5.50
2018-05-17T16:40:17.578Z,4.10
2018-05-17T16:42:46.437Z,4.57
2018-05-17T16:45:15.298Z,8.33
2018-05-17T16:47:44.117Z,8.07
2018-05-17T16:50:12.965Z,5.90
2018-05-17T16:52:41.873Z,4.47
2018-05-17T16:55:10.620Z,12.53
2018-05-17T16:57:39.462Z,5.60
2018-05-17T17:00:08.368Z,6.33
2018-05-17T17:02:37.314Z,102.70
2018-05-17T17:05:06.191Z,621.27
2018-05-17T17:07:35.010Z,376.37
2018-05-17T17:10:03.875Z,273.57
2018-05-17T17:12:32.819Z,175.07
2018-05-17T17:15:01.641Z,139.67
2018-05-17T17:17:30.475Z,125.73
2018-05-17T17:19:59.316Z,93.47
2018-05-17T17:22:28.171Z,77.07
2018-05-17T17:24:57.025Z,215.50
2018-05-17T17:27:25.889Z,216.40
2018-05-17T17:29:54.731Z,191.73
2018-05-17T17:32:23.570Z,220.27
2018-05-17T17:34:52.414Z,14.60
2018-05-17T17:37:21.274Z,44.90
2018-05-17T17:39:50.203Z,10.37
2018-05-17T17:42:19.023Z,56.67
2018-05-17T17:44:47.865Z,31.87
2018-05-17T17:47:16.700Z,35.47
2018-05-17T17:49:45.969Z,585.60
2018-05-17T17:52:14.860Z,463.07
2018-05-17T17:54:43.699Z,175.10
2018-05-17T17:57:12.556Z,19.53
2018-05-17T17:59:41.418Z,437.30
2018-05-17T18:02:10.263Z,109.37
2018-05-17T18:04:39.127Z,221.60
2018-05-17T18:07:07.978Z,63.80
2018-05-17T18:09:36.807Z,11.03
2018-05-17T18:12:05.667Z,156.53
2018-05-17T18:14:34.511Z,70.63
2018-05-17T18:17:03.364Z,99.03
2018-05-17T18:19:32.203Z,26.03
2018-05-17T18:22:01.022Z,33.03
2018-05-17T18:24:29.923Z,64.97
2018-05-17T18:26:58.755Z,120.40
2018-05-17T18:29:27.603Z,145.83
2018-05-17T18:31:56.478Z,161.83
2018-05-17T18:34:25.338Z,42.90
2018-05-17T18:36:54.275Z,54.57
2018-05-17T18:39:23.135Z,238.00
2018-05-17T18:41:51.997Z,55.47
2018-05-17T18:44:20.820Z,12.93
2018-05-17T18:46:49.670Z,74.60
2018-05-17T18:49:18.620Z,20.30
2018-05-17T18:51:47.505Z,119.33
2018-05-17T18:54:16.398Z,261.37
2018-05-17T18:56:45.776Z,363.90
2018-05-17T18:59:14.622Z,296.10
2018-05-17T19:01:43.874Z,147.80
2018-05-17T19:04:12.655Z,489.33
2018-05-17T19:06:41.487Z,293.42
2018-05-17T19:09:10.329Z,349.27
2018-05-17T19:11:39.195Z,222.03
